createdAt,value
2023-05-12T00:01:14.520Z,98053.23
2023-05-12T00:03:42.180Z,98050.59
2023-05-12T00:06:09.107Z,98048.41
2023-05-12T00:08:35.939Z,98051.55
2023-05-12T00:11:03.050Z,98050.98
2023-05-12T00:13:29.976Z,98058.67
2023-05-12T00:15:59.038Z,98058.14
2023-05-12T00:18:28.400Z,98061.75
2023-05-12T00:20:55.828Z,98064.14
2023-05-12T00:23:23.008Z,98060.93
2023-05-12T00:25:50.058Z,98061.06
2023-05-12T00:28:18.192Z,98063.16
2023-05-12T00:30:45.204Z,98058.71
2023-05-12T00:33:12.138Z,98060.25
2023-05-12T00:35:38.923Z,98060.50
2023-05-12T00:38:05.667Z,98060.30
2023-05-12T00:40:32.507Z,98058.84
2023-05-12T00:42:59.367Z,98057.73
2023-05-12T00:45:26.782Z,98058.05
2023-05-12T00:47:53.694Z,98056.91
2023-05-12T00:50:21.401Z,98057.98
2023-05-12T00:52:49.103Z,98057.27
2023-05-12T00:55:16.221Z,98058.27
2023-05-12T00:57:43.550Z,98057.67
2023-05-12T01:00:11.921Z,98058.63
2023-05-12T01:02:39.813Z,98060.42
2023-05-12T01:05:06.873Z,98060.61
2023-05-12T01:07:33.701Z,98060.61
2023-05-12T01:10:01.384Z,98060.75
2023-05-12T01:12:32.346Z,98062.71
2023-05-12T01:14:59.742Z,98061.42
2023-05-12T01:17:33.391Z,98063.95
2023-05-12T01:20:01.703Z,98063.79
2023-05-12T01:22:32.007Z,98066.77
2023-05-12T01:25:02.979Z,98068.00
2023-05-12T01:27:31.714Z,98064.45
2023-05-12T01:29:59.673Z,98068.73
2023-05-12T01:32:27.148Z,98064.38
2023-05-12T01:34:54.228Z,98066.69
2023-05-12T01:37:21.542Z,98066.96
2023-05-12T01:39:48.418Z,98069.44
2023-05-12T01:42:19.084Z,98071.27
2023-05-12T01:44:46.308Z,98066.95
2023-05-12T01:47:15.854Z,98068.45
2023-05-12T01:49:47.528Z,98067.15
2023-05-12T01:52:16.807Z,98065.86
2023-05-12T01:54:44.009Z,98069.55
2023-05-12T01:57:11.931Z,98070.04
2023-05-12T01:59:39.165Z,98069.95
2023-05-12T02:02:06.909Z,98073.89
2023-05-12T02:04:34.881Z,98074.08
2023-05-12T02:07:02.107Z,98070.70
2023-05-12T02:09:30.231Z,98076.98
2023-05-12T02:12:01.321Z,98074.98
2023-05-12T02:14:28.291Z,98078.80
2023-05-12T02:16:56.465Z,98078.74
2023-05-12T02:19:24.602Z,98075.70
2023-05-12T02:21:51.364Z,98078.23
2023-05-12T02:24:18.122Z,98080.84
2023-05-12T02:26:45.216Z,98082.03
2023-05-12T02:29:13.390Z,98076.77
2023-05-12T02:31:40.210Z,98077.94
2023-05-12T02:34:15.654Z,98079.40
2023-05-12T02:36:42.385Z,98080.29
2023-05-12T02:39:09.354Z,98080.54
2023-05-12T02:41:36.205Z,98082.05
2023-05-12T02:44:02.962Z,98079.31
2023-05-12T02:46:30.036Z,98084.07
2023-05-12T02:48:57.384Z,98084.48
2023-05-12T02:51:24.138Z,98084.14
2023-05-12T02:53:50.996Z,98087.91
2023-05-12T02:57:34.361Z,98092.59
2023-05-12T03:00:02.220Z,98087.69
2023-05-12T03:02:29.426Z,98088.94
2023-05-12T03:04:56.448Z,98085.98
2023-05-12T03:07:23.350Z,98084.96
2023-05-12T03:09:50.192Z,98081.89
2023-05-12T03:12:17.639Z,98085.95
2023-05-12T03:14:44.437Z,98084.25
2023-05-12T03:17:11.567Z,98086.27
2023-05-12T03:19:38.762Z,98081.90
2023-05-12T03:22:07.416Z,98080.16
2023-05-12T03:24:34.640Z,98084.94
2023-05-12T03:27:01.564Z,98083.98
2023-05-12T03:29:28.671Z,98082.52
2023-05-12T03:31:55.567Z,98083.80
2023-05-12T03:34:22.667Z,98081.77
2023-05-12T03:36:49.750Z,98084.98
2023-05-12T03:39:17.058Z,98086.15
2023-05-12T03:41:43.993Z,98085.73
2023-05-12T03:44:11.228Z,98090.91
2023-05-12T03:46:38.110Z,98093.95
2023-05-12T03:49:04.991Z,98090.47
2023-05-12T03:51:31.932Z,98092.85
2023-05-12T03:53:58.684Z,98100.46
2023-05-12T03:56:25.459Z,98093.73
2023-05-12T03:58:53.190Z,98097.31
2023-05-12T04:01:20.120Z,98104.51
2023-05-12T04:03:47.027Z,98106.23
2023-05-12T04:06:14.005Z,98106.16
2023-05-12T04:08:42.350Z,98109.10
2023-05-12T04:11:09.745Z,98110.15
2023-05-12T04:13:36.671Z,98110.35
2023-05-12T04:16:03.718Z,98113.04
2023-05-12T04:18:30.635Z,98112.23
2023-05-12T04:20:57.434Z,98112.55
2023-05-12T04:23:24.452Z,98111.52
2023-05-12T04:25:51.370Z,98114.37
2023-05-12T04:28:18.246Z,98114.30
2023-05-12T04:30:45.757Z,98117.52
2023-05-12T04:33:12.754Z,98118.67
2023-05-12T04:35:40.038Z,98118.09
2023-05-12T04:38:07.220Z,98119.05
2023-05-12T04:40:35.130Z,98120.63
2023-05-12T04:43:03.115Z,98124.36
2023-05-12T04:45:31.130Z,98126.09
2023-05-12T04:47:58.156Z,98127.33
2023-05-12T04:50:25.057Z,98128.02
2023-05-12T04:52:52.327Z,98128.30
2023-05-12T04:55:19.455Z,98130.48
2023-05-12T04:57:46.507Z,98131.48
2023-05-12T05:00:13.677Z,98131.95
2023-05-12T05:02:41.630Z,98132.00
2023-05-12T05:05:09.374Z,98132.25
2023-05-12T05:07:36.234Z,98134.92
2023-05-12T05:10:03.576Z,98130.73
2023-05-12T05:12:30.822Z,98134.46
2023-05-12T05:14:57.831Z,98140.20
2023-05-12T05:17:25.127Z,98139.07
2023-05-12T05:19:58.513Z,98141.14
2023-05-12T05:22:28.976Z,98139.55
2023-05-12T05:24:56.425Z,98146.48
2023-05-12T05:27:23.376Z,98143.68
2023-05-12T05:29:50.782Z,98143.66
2023-05-12T05:32:18.324Z,98151.31
2023-05-12T05:34:45.212Z,98146.98
2023-05-12T05:37:12.997Z,98149.36
2023-05-12T05:39:40.349Z,98151.27
2023-05-12T05:42:07.299Z,98152.72
2023-05-12T05:44:34.908Z,98156.22
2023-05-12T05:47:03.280Z,98157.17
2023-05-12T05:49:30.706Z,98157.39
2023-05-12T05:51:59.165Z,98159.19
2023-05-12T05:54:26.420Z,98159.56
2023-05-12T05:56:53.262Z,98158.84
2023-05-12T05:59:20.519Z,98158.73
2023-05-12T06:01:47.388Z,98162.98
2023-05-12T06:04:14.504Z,98161.55
2023-05-12T06:06:41.626Z,98163.98
2023-05-12T06:09:09.763Z,98163.81
2023-05-12T06:11:36.510Z,98168.41
2023-05-12T06:14:03.416Z,98172.67
2023-05-12T06:16:30.290Z,98174.98
2023-05-12T06:18:57.486Z,98177.30
2023-05-12T06:21:24.498Z,98176.23
2023-05-12T06:23:52.013Z,98178.59
2023-05-12T06:26:18.848Z,98179.26
2023-05-12T06:28:45.756Z,98180.80
2023-05-12T06:31:13.029Z,98184.31
2023-05-12T06:33:39.777Z,98184.64
2023-05-12T06:36:07.047Z,98186.61
2023-05-12T06:38:33.842Z,98184.61
2023-05-12T06:41:00.662Z,98183.55
2023-05-12T06:43:27.682Z,98185.81
2023-05-12T06:45:56.777Z,98182.38
2023-05-12T06:48:24.363Z,98183.83
2023-05-12T06:50:51.154Z,98181.40
2023-05-12T06:53:18.375Z,98182.20
2023-05-12T06:55:46.517Z,98183.89
2023-05-12T06:58:13.444Z,98185.75
2023-05-12T07:00:40.392Z,98188.83
2023-05-12T07:03:10.529Z,98185.23
2023-05-12T07:05:37.615Z,98180.98
2023-05-12T07:08:04.796Z,98179.35
2023-05-12T07:10:33.024Z,98184.77
2023-05-12T07:12:59.853Z,98183.23
2023-05-12T07:15:27.049Z,98175.66
2023-05-12T07:17:55.756Z,98178.79
2023-05-12T07:20:23.033Z,98177.05
2023-05-12T07:22:51.667Z,98179.11
2023-05-12T07:25:19.216Z,98178.76
2023-05-12T07:27:46.452Z,98178.39
2023-05-12T07:30:13.432Z,98180.26
2023-05-12T07:32:40.255Z,98180.10
2023-05-12T07:35:11.465Z,98180.09
2023-05-12T07:37:41.663Z,98178.88
2023-05-12T07:40:08.664Z,98172.66
2023-05-12T07:42:35.568Z,98173.09
2023-05-12T07:45:02.400Z,98170.32
2023-05-12T07:47:29.523Z,98174.44
2023-05-12T07:49:56.291Z,98165.89
2023-05-12T07:52:24.380Z,98166.95
2023-05-12T07:54:51.223Z,98165.92
2023-05-12T07:57:18.100Z,98167.19
2023-05-12T07:59:45.038Z,98166.27
2023-05-12T08:02:11.919Z,98168.60
2023-05-12T08:04:38.853Z,98168.90
2023-05-12T08:07:05.729Z,98173.45
2023-05-12T08:09:32.482Z,98172.48
2023-05-12T08:11:59.290Z,98172.21
2023-05-12T08:14:26.356Z,98167.80
2023-05-12T08:16:53.122Z,98163.04
2023-05-12T08:19:19.973Z,98166.80
2023-05-12T08:21:46.780Z,98169.73
2023-05-12T08:24:13.703Z,98168.11
2023-05-12T08:26:40.610Z,98173.56
2023-05-12T08:29:11.618Z,98176.16
2023-05-12T08:31:38.695Z,98173.28
2023-05-12T08:36:35.343Z,98172.34
2023-05-12T08:39:02.862Z,98164.35
2023-05-12T08:41:56.209Z,98168.78
2023-05-12T08:44:23.431Z,98173.54
2023-05-12T08:46:50.357Z,98176.22
2023-05-12T08:49:17.875Z,98171.77
2023-05-12T08:51:49.885Z,98168.29
2023-05-12T08:54:23.629Z,98166.14
2023-05-12T08:59:21.161Z,98171.39
2023-05-12T09:01:48.571Z,98179.14
2023-05-12T09:04:15.580Z,98177.74
2023-05-12T09:06:43.603Z,98176.15
2023-05-12T09:09:11.298Z,98172.13
2023-05-12T09:11:38.078Z,98160.06
2023-05-12T09:14:08.816Z,98164.56
2023-05-12T09:16:42.411Z,98163.59
2023-05-12T09:19:09.371Z,98164.26
2023-05-12T09:21:36.390Z,98172.48
2023-05-12T09:24:07.696Z,98170.73
2023-05-12T09:26:51.399Z,98163.40
2023-05-12T09:29:30.878Z,98172.19
2023-05-12T09:32:00.012Z,98172.34
2023-05-12T09:34:29.271Z,98172.31
2023-05-12T09:37:01.157Z,98166.36
2023-05-12T09:39:29.016Z,98172.11
2023-05-12T09:41:55.959Z,98172.98
2023-05-12T09:44:23.604Z,98169.16
2023-05-12T09:46:51.453Z,98163.20
2023-05-12T09:49:27.030Z,98158.84
2023-05-12T09:51:56.341Z,98162.45
2023-05-12T09:54:28.573Z,98162.20
2023-05-12T09:57:02.878Z,98159.70
2023-05-12T09:59:34.922Z,98162.77
2023-05-12T10:02:03.124Z,98159.73
2023-05-12T10:04:32.533Z,98171.37
2023-05-12T10:06:59.428Z,98163.08
2023-05-12T10:09:32.212Z,98160.46
2023-05-12T10:11:59.062Z,98157.95
2023-05-12T10:14:25.770Z,98160.48
2023-05-12T10:16:52.754Z,98162.61
2023-05-12T10:19:19.939Z,98161.39
2023-05-12T10:21:47.021Z,98161.73
2023-05-12T10:24:19.741Z,98169.41
2023-05-12T10:26:46.808Z,98164.30
2023-05-12T10:29:13.614Z,98156.38
2023-05-12T10:31:40.750Z,98152.55
2023-05-12T10:34:07.906Z,98149.82
2023-05-12T10:36:49.829Z,98145.34
2023-05-12T10:39:17.054Z,98152.97
2023-05-12T10:41:44.049Z,98150.74
2023-05-12T10:44:11.494Z,98152.66
2023-05-12T10:46:38.623Z,98144.65
2023-05-12T10:49:10.156Z,98143.94
2023-05-12T10:51:43.317Z,98148.11
2023-05-12T10:54:11.347Z,98152.70
2023-05-12T10:56:38.667Z,98151.85
2023-05-12T10:59:20.383Z,98153.42
2023-05-12T11:02:15.536Z,98152.76
2023-05-12T11:04:46.782Z,98151.00
2023-05-12T11:07:16.728Z,98150.31
2023-05-12T11:09:57.006Z,98151.98
2023-05-12T11:12:30.286Z,98157.75
2023-05-12T11:15:02.029Z,98155.13
2023-05-12T11:17:29.105Z,98155.65
2023-05-12T11:19:56.621Z,98154.41
2023-05-12T11:22:23.594Z,98154.16
2023-05-12T11:24:50.799Z,98154.08
2023-05-12T11:27:19.254Z,98157.76
2023-05-12T11:29:55.778Z,98153.43
2023-05-12T11:32:22.582Z,98157.05
2023-05-12T11:34:49.412Z,98159.21
2023-05-12T11:37:16.158Z,98162.83
2023-05-12T11:39:43.089Z,98155.15
2023-05-12T11:42:13.485Z,98158.10
2023-05-12T11:44:48.053Z,98147.38
2023-05-12T11:47:15.791Z,98149.75
2023-05-12T11:49:50.616Z,98145.92
2023-05-12T11:52:17.893Z,98139.02
2023-05-12T11:54:52.069Z,98134.96
2023-05-12T11:57:29.586Z,98134.21
2023-05-12T12:00:02.991Z,98133.73
2023-05-12T12:02:33.501Z,98136.63
2023-05-12T12:05:00.580Z,98136.27
2023-05-12T12:07:31.640Z,98135.55
2023-05-12T12:09:59.166Z,98137.15
2023-05-12T12:12:26.100Z,98141.89
2023-05-12T12:14:52.942Z,98134.86
2023-05-12T12:17:20.221Z,98139.64
2023-05-12T12:19:47.828Z,98135.95
2023-05-12T12:22:14.689Z,98134.67
2023-05-12T12:24:41.433Z,98139.50
2023-05-12T12:27:08.469Z,98129.95
2023-05-12T12:29:35.259Z,98129.85
2023-05-12T12:32:02.810Z,98126.42
2023-05-12T12:34:29.794Z,98129.13
2023-05-12T12:36:56.583Z,98130.23
2023-05-12T12:39:23.413Z,98129.73
2023-05-12T12:41:50.260Z,98130.02
2023-05-12T12:44:17.785Z,98128.75
2023-05-12T12:46:44.661Z,98126.55
2023-05-12T12:49:11.522Z,98131.39
2023-05-12T12:51:45.716Z,98127.36
2023-05-12T12:54:13.366Z,98128.34
2023-05-12T12:56:40.322Z,98125.54
2023-05-12T12:59:07.282Z,98126.62
2023-05-12T13:01:34.222Z,98125.34
2023-05-12T13:04:01.224Z,98120.70
2023-05-12T13:06:29.434Z,98115.48
2023-05-12T13:08:56.698Z,98120.55
2023-05-12T13:11:23.666Z,98115.64
2023-05-12T13:13:50.430Z,98116.04
2023-05-12T13:16:17.311Z,98119.36
2023-05-12T13:18:45.965Z,98112.02
2023-05-12T13:21:12.879Z,98113.29
2023-05-12T13:23:39.665Z,98108.80
2023-05-12T13:26:06.551Z,98112.23
2023-05-12T13:28:33.675Z,98107.95
2023-05-12T13:31:00.834Z,98112.09
2023-05-12T13:33:27.728Z,98109.02
2023-05-12T13:35:55.271Z,98107.48
2023-05-12T13:38:22.486Z,98112.15
2023-05-12T13:40:49.295Z,98108.13
2023-05-12T13:43:16.041Z,98105.39
2023-05-12T13:45:42.943Z,98103.49
2023-05-12T13:48:09.751Z,98108.86
2023-05-12T13:50:36.692Z,98110.55
2023-05-12T13:53:03.444Z,98104.77
2023-05-12T13:55:30.257Z,98101.83
2023-05-12T13:57:57.513Z,98100.16
2023-05-12T14:00:27.425Z,98102.04
2023-05-12T14:02:54.402Z,98098.03
2023-05-12T14:05:21.547Z,98095.98
2023-05-12T14:07:48.947Z,98089.62
2023-05-12T14:10:15.823Z,98088.86
2023-05-12T14:12:43.030Z,98090.30
2023-05-12T14:15:32.537Z,98093.35
2023-05-12T14:17:57.134Z,98101.69
2023-05-12T14:20:24.076Z,98097.96
2023-05-12T14:22:52.350Z,98098.11
2023-05-12T14:25:19.540Z,98090.06
2023-05-12T14:27:46.837Z,98093.81
2023-05-12T14:30:14.421Z,98086.85
2023-05-12T14:32:41.322Z,98085.41
2023-05-12T14:35:10.406Z,98080.83
2023-05-12T14:37:37.555Z,98080.42
2023-05-12T14:40:05.462Z,98078.73
2023-05-12T14:42:32.458Z,98082.14
2023-05-12T14:44:59.447Z,98087.08
2023-05-12T14:47:26.910Z,98085.16
2023-05-12T14:49:53.760Z,98087.82
2023-05-12T14:52:20.491Z,98088.77
2023-05-12T14:54:47.572Z,98094.06
2023-05-12T14:57:14.330Z,98094.23
2023-05-12T14:59:41.288Z,98092.23
2023-05-12T15:02:08.155Z,98082.46
2023-05-12T15:04:35.292Z,98081.53
2023-05-12T15:07:02.122Z,98077.40
2023-05-12T15:09:28.989Z,98070.86
2023-05-12T15:14:26.318Z,98070.50
2023-05-12T15:16:53.107Z,98070.58
2023-05-12T15:19:21.458Z,98068.34
2023-05-12T15:21:48.346Z,98070.35
2023-05-12T15:24:15.274Z,98065.14
2023-05-12T15:26:42.072Z,98068.48
2023-05-12T15:29:08.912Z,98068.29
2023-05-12T15:31:35.928Z,98068.95
2023-05-12T15:34:03.300Z,98060.20
2023-05-12T15:36:31.128Z,98067.60
2023-05-12T15:38:58.001Z,98064.59
2023-05-12T15:41:24.868Z,98063.66
2023-05-12T15:43:51.769Z,98065.05
2023-05-12T15:46:18.663Z,98066.75
2023-05-12T15:48:45.516Z,98060.60
2023-05-12T15:51:12.512Z,98064.27
2023-05-12T15:53:39.295Z,98062.64
2023-05-12T15:56:06.507Z,98063.81
2023-05-12T15:58:33.928Z,98064.44
2023-05-12T16:01:00.701Z,98059.13
2023-05-12T16:03:27.572Z,98064.21
2023-05-12T16:05:54.573Z,98058.69
2023-05-12T16:08:22.183Z,98057.55
2023-05-12T16:10:48.997Z,98063.18
2023-05-12T16:13:15.945Z,98055.91
2023-05-12T16:15:43.110Z,98059.06
2023-05-12T16:18:11.283Z,98055.95
2023-05-12T16:20:39.148Z,98058.95
2023-05-12T16:23:06.284Z,98060.27
2023-05-12T16:25:33.088Z,98059.27
2023-05-12T16:27:59.813Z,98062.42
2023-05-12T16:30:26.955Z,98064.40
2023-05-12T16:32:53.905Z,98059.77
2023-05-12T16:35:21.387Z,98067.23
2023-05-12T16:37:48.519Z,98062.19
2023-05-12T16:40:15.688Z,98061.87
2023-05-12T16:42:42.784Z,98061.28
2023-05-12T16:45:11.258Z,98066.82
2023-05-12T16:47:38.460Z,98066.16
2023-05-12T16:50:06.286Z,98074.63
2023-05-12T16:52:33.857Z,98075.17
2023-05-12T16:55:00.808Z,98077.33
2023-05-12T16:57:27.712Z,98083.70
2023-05-12T16:59:54.488Z,98085.05
2023-05-12T17:02:21.411Z,98081.10
2023-05-12T17:04:48.293Z,98081.13
2023-05-12T17:07:15.144Z,98083.34
2023-05-12T17:09:42.083Z,98091.61
2023-05-12T17:12:09.172Z,98091.82
2023-05-12T17:14:36.066Z,98097.40
2023-05-12T17:17:03.618Z,98101.50
2023-05-12T17:19:30.554Z,98100.74
2023-05-12T17:21:57.591Z,98095.53
2023-05-12T17:24:24.465Z,98098.23
2023-05-12T17:26:51.357Z,98102.27
2023-05-12T17:29:18.460Z,98102.69
2023-05-12T17:31:45.226Z,98104.27
2023-05-12T17:34:12.274Z,98109.52
2023-05-12T17:36:39.056Z,98105.30
2023-05-12T17:39:05.919Z,98104.15
2023-05-12T17:41:32.759Z,98110.09
2023-05-12T17:43:59.579Z,98108.02
2023-05-12T17:46:26.392Z,98106.09
2023-05-12T17:48:53.386Z,98107.55
2023-05-12T17:51:20.117Z,98107.70
2023-05-12T17:53:47.470Z,98104.41
2023-05-12T17:56:14.330Z,98110.63
2023-05-12T17:58:41.667Z,98111.89
2023-05-12T18:01:08.580Z,98116.95
2023-05-12T18:03:35.579Z,98115.54
2023-05-12T18:06:02.541Z,98113.78
2023-05-12T18:08:29.502Z,98113.52
2023-05-12T18:10:56.587Z,98120.90
2023-05-12T18:13:23.640Z,98121.36
2023-05-12T18:15:50.498Z,98128.67
2023-05-12T18:18:17.325Z,98132.53
2023-05-12T18:20:44.529Z,98133.60
2023-05-12T18:23:11.402Z,98135.77
2023-05-12T18:25:38.669Z,98137.21
2023-05-12T18:28:06.914Z,98137.23
2023-05-12T18:30:34.045Z,98138.38
2023-05-12T18:33:00.955Z,98139.36
2023-05-12T18:35:28.103Z,98140.16
2023-05-12T18:37:55.142Z,98144.00
2023-05-12T18:40:22.084Z,98144.76
2023-05-12T18:42:49.050Z,98147.27
2023-05-12T18:45:15.863Z,98148.08
2023-05-12T18:47:42.661Z,98147.37
2023-05-12T18:50:09.961Z,98147.36
2023-05-12T18:52:37.064Z,98146.56
2023-05-12T18:55:04.072Z,98148.84
2023-05-12T18:57:30.803Z,98149.05
2023-05-12T18:59:57.602Z,98152.44
2023-05-12T19:02:24.624Z,98153.60
2023-05-12T19:04:52.234Z,98152.64
2023-05-12T19:07:19.462Z,98150.66
2023-05-12T19:09:46.442Z,98154.94
2023-05-12T19:12:13.538Z,98156.26
2023-05-12T19:14:40.420Z,98156.46
2023-05-12T19:17:07.936Z,98155.85
2023-05-12T19:19:34.953Z,98157.55
2023-05-12T19:22:02.247Z,98162.90
2023-05-12T19:24:29.401Z,98164.22
2023-05-12T19:26:56.230Z,98163.63
2023-05-12T19:29:23.139Z,98162.95
2023-05-12T19:31:50.930Z,98163.52
2023-05-12T19:34:17.902Z,98161.77
2023-05-12T19:36:44.665Z,98166.38
2023-05-12T19:39:11.417Z,98167.70
2023-05-12T19:41:39.468Z,98169.28
2023-05-12T19:44:06.429Z,98167.15
2023-05-12T19:46:33.408Z,98169.38
2023-05-12T19:49:00.386Z,98174.66
2023-05-12T19:51:27.201Z,98169.68
2023-05-12T19:53:53.939Z,98174.08
2023-05-12T19:56:20.996Z,98172.17
2023-05-12T19:58:48.036Z,98172.70
2023-05-12T20:01:14.792Z,98169.67
2023-05-12T20:03:41.630Z,98172.85
2023-05-12T20:06:08.352Z,98166.50
2023-05-12T20:08:35.146Z,98171.38
2023-05-12T20:11:01.934Z,98174.92
2023-05-12T20:13:28.782Z,98170.69
2023-05-12T20:15:55.583Z,98167.67
2023-05-12T20:18:23.876Z,98168.67
2023-05-12T20:20:50.991Z,98169.41
2023-05-12T20:23:17.869Z,98165.76
2023-05-12T20:25:44.620Z,98163.42
2023-05-12T20:28:11.865Z,98165.11
2023-05-12T20:30:38.842Z,98163.14
2023-05-12T20:33:05.811Z,98159.81
2023-05-12T20:35:32.904Z,98162.71
2023-05-12T20:37:59.719Z,98162.31
2023-05-12T20:40:26.510Z,98162.71
2023-05-12T20:42:53.618Z,98164.86
2023-05-12T20:45:21.117Z,98164.42
2023-05-12T20:47:48.409Z,98166.04
2023-05-12T20:50:15.275Z,98169.26
2023-05-12T20:52:42.129Z,98170.21
2023-05-12T20:55:09.527Z,98170.30
2023-05-12T20:57:37.918Z,98166.76
2023-05-12T21:00:12.220Z,98167.44
2023-05-12T21:02:39.043Z,98165.55
2023-05-12T21:05:06.470Z,98168.23
2023-05-12T21:07:33.929Z,98173.36
2023-05-12T21:10:00.951Z,98174.00
2023-05-12T21:12:27.818Z,98173.73
2023-05-12T21:14:54.662Z,98171.91
2023-05-12T21:17:21.771Z,98170.69
2023-05-12T21:19:48.572Z,98172.27
2023-05-12T21:22:15.747Z,98168.98
2023-05-12T21:24:43.141Z,98172.19
2023-05-12T21:27:10.004Z,98174.56
2023-05-12T21:29:36.903Z,98171.48
2023-05-12T21:32:04.221Z,98171.16
2023-05-12T21:34:33.626Z,98175.70
2023-05-12T21:37:00.662Z,98176.42
2023-05-12T21:39:27.929Z,98182.23
2023-05-12T21:41:54.734Z,98182.23
2023-05-12T21:44:21.463Z,98178.40
2023-05-12T21:46:48.309Z,98181.20
2023-05-12T21:49:15.556Z,98181.77
2023-05-12T21:51:42.335Z,98177.73
2023-05-12T21:54:09.380Z,98175.77
2023-05-12T21:56:36.614Z,98174.28
2023-05-12T21:59:03.377Z,98176.34
2023-05-12T22:01:30.188Z,98174.36
2023-05-12T22:03:58.887Z,98175.36
2023-05-12T22:06:26.257Z,98178.05
2023-05-12T22:08:54.149Z,98178.73
2023-05-12T22:11:21.684Z,98178.52
2023-05-12T22:13:48.690Z,98177.82
2023-05-12T22:16:15.867Z,98177.05
2023-05-12T22:18:45.860Z,98176.61
2023-05-12T22:21:13.609Z,98176.81
2023-05-12T22:23:42.253Z,98177.35
2023-05-12T22:26:09.813Z,98176.73
2023-05-12T22:28:36.595Z,98174.01
2023-05-12T22:31:03.604Z,98171.97
2023-05-12T22:33:31.739Z,98172.94
2023-05-12T22:36:00.058Z,98171.75
2023-05-12T22:38:29.900Z,98169.91
2023-05-12T22:40:56.639Z,98173.34
2023-05-12T22:43:23.507Z,98175.09
2023-05-12T22:45:53.254Z,98172.45
2023-05-12T22:48:20.043Z,98172.85
2023-05-12T22:50:47.151Z,98172.38
2023-05-12T22:53:14.402Z,98171.15
2023-05-12T22:55:41.527Z,98169.04
2023-05-12T22:58:10.442Z,98168.13
2023-05-12T23:00:37.623Z,98165.21
2023-05-12T23:03:04.615Z,98164.67
2023-05-12T23:05:31.393Z,98163.91
2023-05-12T23:07:58.379Z,98159.63
2023-05-12T23:10:25.429Z,98161.23
2023-05-12T23:12:52.215Z,98157.91
2023-05-12T23:15:19.034Z,98160.77
2023-05-12T23:17:46.012Z,98159.66
2023-05-12T23:20:12.882Z,98158.66
2023-05-12T23:22:39.885Z,98155.45
2023-05-12T23:25:07.418Z,98157.70
2023-05-12T23:27:34.229Z,98156.50
2023-05-12T23:30:01.292Z,98162.58
2023-05-12T23:32:28.130Z,98161.39
2023-05-12T23:34:55.238Z,98158.36
2023-05-12T23:37:22.246Z,98158.80
2023-05-12T23:39:49.289Z,98156.93
2023-05-12T23:42:17.177Z,98158.25
2023-05-12T23:44:44.108Z,98155.27
2023-05-12T23:47:10.813Z,98155.62
2023-05-12T23:49:37.641Z,98155.52
2023-05-12T23:52:04.696Z,98153.53
2023-05-12T23:54:31.457Z,98153.27
2023-05-12T23:56:58.367Z,98157.14
2023-05-12T23:59:25.518Z,98158.27
